createdAt,value
2016-05-28T00:00:57.519Z,0
2016-05-28T00:02:00.554Z,0
2016-05-28T00:03:03.400Z,0
2016-05-28T00:04:00.590Z,0
2016-05-28T00:04:58.999Z,0
2016-05-28T00:05:57.143Z,0
2016-05-28T00:06:54.410Z,0
2016-05-28T00:07:57.196Z,0
2016-05-28T00:08:56.995Z,0
2016-05-28T00:09:54.090Z,0
2016-05-28T00:10:56.876Z,0
2016-05-28T00:11:57.503Z,0
2016-05-28T00:12:57.162Z,0
2016-05-28T00:13:53.587Z,0
2016-05-28T00:14:56.854Z,0
2016-05-28T00:15:56.810Z,0
2016-05-28T00:16:54.156Z,0
2016-05-28T00:17:53.784Z,0
2016-05-28T00:18:53.662Z,0
2016-05-28T00:19:53.650Z,0
2016-05-28T00:20:56.433Z,0
2016-05-28T00:21:56.514Z,0
2016-05-28T00:22:53.486Z,0
2016-05-28T00:23:56.098Z,0
2016-05-28T00:24:56.475Z,0
2016-05-28T00:25:56.227Z,0
2016-05-28T00:26:52.981Z,0
2016-05-28T00:27:56.217Z,0
2016-05-28T00:28:53.220Z,0
2016-05-28T00:29:53.317Z,0
2016-05-28T00:30:56.100Z,0
2016-05-28T00:31:55.775Z,0
2016-05-28T00:32:56.231Z,0
2016-05-28T00:34:04.968Z,0
2016-05-28T00:34:59.518Z,0
2016-05-28T00:35:53.130Z,0
2016-05-28T00:36:59.461Z,0
2016-05-28T00:37:58.979Z,0
2016-05-28T00:38:52.716Z,0
2016-05-28T00:39:58.749Z,0
2016-05-28T00:40:55.831Z,0
2016-05-28T00:42:01.615Z,0
2016-05-28T00:42:55.758Z,0
2016-05-28T00:43:52.510Z,0
2016-05-28T00:44:55.342Z,0
2016-05-28T00:45:59.563Z,0
2016-05-28T00:46:58.394Z,0
2016-05-28T00:47:55.318Z,0
2016-05-28T00:48:52.665Z,0
2016-05-28T00:49:55.886Z,0
2016-05-28T00:50:55.061Z,0
2016-05-28T00:51:58.157Z,0
2016-05-28T00:52:58.128Z,0
2016-05-28T00:53:55.053Z,0
2016-05-28T00:54:55.087Z,0
2016-05-28T00:55:54.824Z,0
2016-05-28T00:56:51.890Z,0
2016-05-28T00:57:54.861Z,0
2016-05-28T00:58:54.644Z,0
2016-05-28T00:59:54.961Z,0
2016-05-28T01:00:54.775Z,0
2016-05-28T01:01:51.637Z,0
2016-05-28T01:02:51.608Z,0
2016-05-28T01:03:57.768Z,0
2016-05-28T01:04:52.380Z,0
2016-05-28T01:05:51.460Z,0
2016-05-28T01:06:51.291Z,0
2016-05-28T01:07:54.388Z,0
2016-05-28T01:08:54.563Z,0
2016-05-28T01:09:51.097Z,0
2016-05-28T01:10:54.098Z,0
2016-05-28T01:11:51.617Z,0
2016-05-28T01:12:50.682Z,0
2016-05-28T01:13:51.123Z,0
2016-05-28T01:14:51.125Z,0
2016-05-28T01:15:50.926Z,0
2016-05-28T01:16:51.287Z,0
2016-05-28T01:17:57.134Z,0
2016-05-28T01:18:51.261Z,0
2016-05-28T01:20:00.061Z,0
2016-05-28T01:20:53.610Z,0
2016-05-28T01:21:53.597Z,0
2016-05-28T01:22:50.678Z,0
2016-05-28T01:23:53.650Z,0
2016-05-28T01:24:50.855Z,0
2016-05-28T01:25:53.733Z,0
2016-05-28T01:26:51.125Z,0
2016-05-28T01:27:50.879Z,0
2016-05-28T01:28:53.414Z,0
2016-05-28T01:29:56.369Z,0
2016-05-28T01:30:50.309Z,0
2016-05-28T01:31:53.124Z,0
2016-05-28T01:32:50.892Z,0
2016-05-28T01:33:56.349Z,0
2016-05-28T01:34:53.788Z,0
2016-05-28T01:35:53.072Z,0
2016-05-28T01:36:56.107Z,0
2016-05-28T01:37:50.171Z,0
2016-05-28T01:38:52.908Z,0
2016-05-28T01:39:50.067Z,0
2016-05-28T01:40:52.868Z,0
2016-05-28T01:41:53.026Z,0
2016-05-28T01:42:49.966Z,0
2016-05-28T01:43:49.716Z,0
2016-05-28T01:44:53.221Z,0
2016-05-28T01:45:52.802Z,0
2016-05-28T01:46:52.587Z,0
2016-05-28T01:47:49.384Z,0
2016-05-28T01:48:52.685Z,0
2016-05-28T01:49:55.188Z,0
2016-05-28T01:50:49.360Z,0
2016-05-28T01:51:49.175Z,0
2016-05-28T01:52:55.102Z,0
2016-05-28T01:53:49.352Z,0
2016-05-28T01:54:52.186Z,0
2016-05-28T01:55:49.186Z,0
2016-05-28T01:56:49.111Z,0
2016-05-28T01:57:49.067Z,0
2016-05-28T01:58:57.712Z,0
2016-05-28T01:59:55.169Z,0
2016-05-28T02:00:48.903Z,0
2016-05-28T02:01:51.845Z,0
2016-05-28T02:02:52.019Z,0
2016-05-28T02:03:48.769Z,0
2016-05-28T02:04:51.760Z,0
2016-05-28T02:05:51.888Z,0
2016-05-28T02:06:54.875Z,0
2016-05-28T02:07:48.422Z,0
2016-05-28T02:08:51.693Z,0
2016-05-28T02:09:54.336Z,0
2016-05-28T02:10:51.464Z,0
2016-05-28T02:11:51.388Z,0
2016-05-28T02:12:54.343Z,0
2016-05-28T02:13:54.518Z,0
2016-05-28T02:14:57.099Z,0
2016-05-28T02:15:51.258Z,0
2016-05-28T02:16:51.151Z,0
2016-05-28T02:17:53.951Z,0
2016-05-28T02:18:51.484Z,0
2016-05-28T02:19:50.984Z,0
2016-05-28T02:20:50.957Z,0
2016-05-28T02:21:54.148Z,0
2016-05-28T02:22:50.867Z,0
2016-05-28T02:23:51.529Z,0
2016-05-28T02:24:51.092Z,0
2016-05-28T02:25:50.720Z,0
2016-05-28T02:26:53.881Z,0
2016-05-28T02:27:53.650Z,0
2016-05-28T02:28:47.603Z,0
2016-05-28T02:29:47.762Z,0
2016-05-28T02:30:47.483Z,0
2016-05-28T02:31:50.470Z,0
2016-05-28T02:32:53.428Z,0
2016-05-28T02:33:47.194Z,0
2016-05-28T02:34:53.121Z,0
2016-05-28T02:35:53.686Z,0
2016-05-28T02:36:47.452Z,0
2016-05-28T02:37:47.050Z,0
2016-05-28T02:38:46.958Z,0
2016-05-28T02:39:46.930Z,0
2016-05-28T02:40:47.635Z,0
2016-05-28T02:41:46.982Z,0
2016-05-28T02:42:46.952Z,0
2016-05-28T02:43:46.894Z,0
2016-05-28T02:44:46.896Z,0
2016-05-28T02:45:46.789Z,0
2016-05-28T02:46:46.761Z,0
2016-05-28T02:47:49.716Z,0
2016-05-28T02:48:46.516Z,0
2016-05-28T02:49:47.190Z,0
2016-05-28T02:50:46.599Z,0
2016-05-28T02:51:46.368Z,0
2016-05-28T02:52:46.449Z,0
2016-05-28T02:53:55.422Z,0
2016-05-28T02:54:55.269Z,0
2016-05-28T02:55:49.191Z,0
2016-05-28T02:56:52.131Z,0
2016-05-28T02:57:58.464Z,0
2016-05-28T02:58:52.417Z,0
2016-05-28T02:59:51.920Z,0
2016-05-28T03:00:46.080Z,0
2016-05-28T03:01:52.035Z,0
2016-05-28T03:02:48.992Z,0
2016-05-28T03:03:55.122Z,0
2016-05-28T03:04:48.841Z,0
2016-05-28T03:05:55.080Z,0
2016-05-28T03:06:55.238Z,0
2016-05-28T03:07:51.738Z,0
2016-05-28T03:08:45.758Z,0
2016-05-28T03:09:54.778Z,0
2016-05-28T03:10:54.656Z,0
2016-05-28T03:11:48.641Z,0
2016-05-28T03:12:48.550Z,0
2016-05-28T03:13:46.333Z,0
2016-05-28T03:14:48.446Z,0
2016-05-28T03:15:45.401Z,0
2016-05-28T03:16:51.326Z,0
2016-05-28T03:17:45.281Z,0
2016-05-28T03:18:51.332Z,0
2016-05-28T03:19:51.256Z,0
2016-05-28T03:20:48.055Z,0
2016-05-28T03:21:44.948Z,0
2016-05-28T03:22:48.060Z,0
2016-05-28T03:23:45.001Z,0
2016-05-28T03:24:47.801Z,0
2016-05-28T03:25:45.131Z,0
2016-05-28T03:26:45.056Z,0
2016-05-28T03:27:47.839Z,0
2016-05-28T03:28:50.748Z,0
2016-05-28T03:29:44.767Z,0
2016-05-28T03:30:44.661Z,0
2016-05-28T03:31:44.616Z,0
2016-05-28T03:32:44.587Z,0
2016-05-28T03:33:47.387Z,0
2016-05-28T03:34:47.358Z,0
2016-05-28T03:35:44.299Z,0
2016-05-28T03:36:51.114Z,0
2016-05-28T03:37:44.038Z,0
2016-05-28T03:38:59.246Z,0
2016-05-28T03:39:47.621Z,0
2016-05-28T03:40:50.296Z,0
2016-05-28T03:41:59.146Z,0
2016-05-28T03:42:53.443Z,0
2016-05-28T03:43:43.913Z,0
2016-05-28T03:44:56.122Z,0
2016-05-28T03:45:50.326Z,0
2016-05-28T03:46:46.766Z,0
2016-05-28T03:47:49.877Z,0
2016-05-28T03:48:43.865Z,0
2016-05-28T03:49:50.399Z,0
2016-05-28T03:50:50.480Z,0
2016-05-28T03:51:46.701Z,0
2016-05-28T03:52:49.970Z,0
2016-05-28T03:53:46.457Z,0
2016-05-28T03:54:55.556Z,0
2016-05-28T03:55:55.480Z,5
2016-05-28T03:56:50.073Z,5
2016-05-28T03:57:43.404Z,5
2016-05-28T03:58:49.767Z,5
2016-05-28T03:59:46.503Z,5
2016-05-28T04:00:49.600Z,5
2016-05-28T04:01:43.228Z,5
2016-05-28T04:02:46.215Z,5
2016-05-28T04:03:49.140Z,5
2016-05-28T04:04:42.923Z,5
2016-05-28T04:05:45.895Z,5
2016-05-28T04:06:45.976Z,5
2016-05-28T04:07:49.166Z,5
2016-05-28T04:08:45.887Z,5
2016-05-28T04:09:45.828Z,5
2016-05-28T04:10:42.721Z,5
2016-05-28T04:11:42.599Z,5
2016-05-28T04:12:45.742Z,5
2016-05-28T04:13:42.541Z,5
2016-05-28T04:14:42.622Z,5
2016-05-28T04:15:42.485Z,5
2016-05-28T04:16:45.535Z,5
2016-05-28T04:17:48.505Z,5
2016-05-28T04:18:48.649Z,5
2016-05-28T04:19:45.089Z,5
2016-05-28T04:20:45.310Z,5
2016-05-28T04:21:45.813Z,5
2016-05-28T04:22:45.253Z,5
2016-05-28T04:23:42.178Z,5
2016-05-28T04:24:42.212Z,5
2016-05-28T04:25:42.105Z,5
2016-05-28T04:26:45.092Z,5
2016-05-28T04:27:48.204Z,5
2016-05-28T04:28:44.816Z,5
2016-05-28T04:29:42.615Z,5
2016-05-28T04:30:41.868Z,5
2016-05-28T04:31:50.855Z,10
2016-05-28T04:32:41.639Z,10
2016-05-28T04:33:41.736Z,10
2016-05-28T04:34:41.550Z,10
2016-05-28T04:35:45.069Z,10
2016-05-28T04:36:50.572Z,10
2016-05-28T04:37:47.497Z,10
2016-05-28T04:38:41.687Z,10
2016-05-28T04:39:47.611Z,10
2016-05-28T04:40:41.208Z,10
2016-05-28T04:41:53.477Z,10
2016-05-28T04:42:44.525Z,10
2016-05-28T04:43:44.247Z,10
2016-05-28T04:44:44.203Z,10
2016-05-28T04:45:47.081Z,10
2016-05-28T04:46:44.833Z,10
2016-05-28T04:47:47.133Z,10
2016-05-28T04:48:47.027Z,10
2016-05-28T04:49:47.748Z,10
2016-05-28T04:50:46.922Z,10
2016-05-28T04:51:44.160Z,10
2016-05-28T04:52:40.802Z,10
2016-05-28T04:53:46.790Z,10
2016-05-28T04:54:43.746Z,10
2016-05-28T04:55:43.857Z,10
2016-05-28T04:56:43.563Z,10
2016-05-28T04:57:43.269Z,10
2016-05-28T04:58:43.756Z,15
2016-05-28T04:59:49.728Z,15
2016-05-28T05:00:40.449Z,15
2016-05-28T05:01:43.389Z,15
2016-05-28T05:02:46.220Z,15
2016-05-28T05:03:46.489Z,15
2016-05-28T05:04:43.944Z,15
2016-05-28T05:05:40.087Z,15
2016-05-28T05:06:40.418Z,15
2016-05-28T05:07:40.092Z,20
2016-05-28T05:08:39.918Z,20
2016-05-28T05:09:43.445Z,20
2016-05-28T05:10:43.097Z,20
2016-05-28T05:11:39.858Z,20
2016-05-28T05:12:40.213Z,20
2016-05-28T05:13:40.001Z,20
2016-05-28T05:14:40.013Z,20
2016-05-28T05:15:51.883Z,20
2016-05-28T05:16:49.379Z,20
2016-05-28T05:17:42.828Z,20
2016-05-28T05:18:42.979Z,20
2016-05-28T05:19:42.859Z,25
2016-05-28T05:20:43.114Z,25
2016-05-28T05:21:45.387Z,25
2016-05-28T05:22:45.814Z,25
2016-05-28T05:23:39.912Z,25
2016-05-28T05:24:48.527Z,25
2016-05-28T05:25:42.358Z,25
2016-05-28T05:26:45.643Z,25
2016-05-28T05:27:42.350Z,25
2016-05-28T05:28:43.228Z,25
2016-05-28T05:29:42.278Z,25
2016-05-28T05:30:38.906Z,30
2016-05-28T05:31:42.457Z,30
2016-05-28T05:32:45.350Z,30
2016-05-28T05:33:39.057Z,30
2016-05-28T05:34:40.105Z,30
2016-05-28T05:35:41.701Z,30
2016-05-28T05:36:42.346Z,30
2016-05-28T05:37:41.910Z,30
2016-05-28T05:38:38.851Z,35
2016-05-28T05:39:44.806Z,35
2016-05-28T05:40:41.606Z,35
2016-05-28T05:41:41.703Z,35
2016-05-28T05:42:41.643Z,35
2016-05-28T05:43:38.598Z,35
2016-05-28T05:44:44.648Z,35
2016-05-28T05:45:38.432Z,35
2016-05-28T05:46:41.326Z,35
2016-05-28T05:47:41.437Z,35
2016-05-28T05:48:38.205Z,35
2016-05-28T05:49:40.600Z,35
2016-05-28T05:50:40.070Z,35
2016-05-28T05:51:41.464Z,35
2016-05-28T05:52:41.186Z,40
2016-05-28T05:53:38.110Z,40
2016-05-28T05:54:41.113Z,45
2016-05-28T05:55:41.052Z,45
2016-05-28T05:56:41.212Z,45
2016-05-28T05:57:37.964Z,45
2016-05-28T05:58:37.905Z,45
2016-05-28T05:59:48.392Z,45
2016-05-28T06:00:40.847Z,45
2016-05-28T06:01:37.757Z,45
2016-05-28T06:02:46.571Z,45
2016-05-28T06:03:43.356Z,50
2016-05-28T06:04:44.327Z,50
2016-05-28T06:05:41.174Z,50
2016-05-28T06:06:43.566Z,50
2016-05-28T06:07:43.568Z,55
2016-05-28T06:08:46.650Z,50
2016-05-28T06:09:43.263Z,50
2016-05-28T06:10:40.546Z,50
2016-05-28T06:11:40.720Z,55
2016-05-28T06:12:40.114Z,55
2016-05-28T06:13:43.648Z,50
2016-05-28T06:14:37.229Z,50
2016-05-28T06:15:40.309Z,50
2016-05-28T06:16:40.078Z,45
2016-05-28T06:17:39.862Z,45
2016-05-28T06:18:37.459Z,40
2016-05-28T06:19:36.664Z,45
2016-05-28T06:20:38.714Z,45
2016-05-28T06:21:36.811Z,45
2016-05-28T06:22:43.031Z,50
2016-05-28T06:23:42.941Z,55
2016-05-28T06:24:42.709Z,55
2016-05-28T06:25:42.477Z,55
2016-05-28T06:26:36.464Z,55
2016-05-28T06:27:39.748Z,55
2016-05-28T06:28:42.547Z,55
2016-05-28T06:29:36.285Z,60
2016-05-28T06:30:39.397Z,60
2016-05-28T06:31:36.415Z,65
2016-05-28T06:32:36.715Z,70
2016-05-28T06:33:39.124Z,75
2016-05-28T06:34:36.533Z,75
2016-05-28T06:35:42.301Z,75
2016-05-28T06:36:36.319Z,70
2016-05-28T06:37:39.087Z,70
2016-05-28T06:38:36.027Z,70
2016-05-28T06:39:35.984Z,75
2016-05-28T06:40:35.940Z,75
2016-05-28T06:41:38.879Z,80
2016-05-28T06:42:38.835Z,80
2016-05-28T06:43:35.823Z,85
2016-05-28T06:44:45.184Z,90
2016-05-28T06:45:38.562Z,90
2016-05-28T06:46:35.502Z,90
2016-05-28T06:47:35.802Z,90
2016-05-28T06:48:38.461Z,90
2016-05-28T06:49:38.651Z,90
2016-05-28T06:50:41.950Z,95
2016-05-28T06:51:38.437Z,90
2016-05-28T06:52:35.394Z,90
2016-05-28T06:53:41.567Z,85
2016-05-28T06:54:41.415Z,80
2016-05-28T06:55:38.448Z,80
2016-05-28T06:56:35.232Z,75
2016-05-28T06:57:44.236Z,65
2016-05-28T06:58:38.145Z,70
2016-05-28T06:59:38.381Z,65
2016-05-28T07:00:41.118Z,60
2016-05-28T07:01:35.308Z,60
2016-05-28T07:02:34.921Z,60
2016-05-28T07:03:41.079Z,65
2016-05-28T07:04:43.394Z,65
2016-05-28T07:05:40.710Z,75
2016-05-28T07:06:37.915Z,80
2016-05-28T07:07:37.715Z,90
2016-05-28T07:08:35.108Z,75
2016-05-28T07:09:37.596Z,70
2016-05-28T07:10:34.738Z,75
2016-05-28T07:11:34.632Z,90
2016-05-28T07:12:37.306Z,90
2016-05-28T07:13:37.418Z,100
2016-05-28T07:14:37.234Z,90
2016-05-28T07:15:37.392Z,85
2016-05-28T07:16:39.115Z,90
2016-05-28T07:17:37.257Z,100
2016-05-28T07:18:34.182Z,120
2016-05-28T07:19:37.262Z,130
2016-05-28T07:20:37.219Z,125
2016-05-28T07:21:33.861Z,120
2016-05-28T07:22:36.881Z,105
2016-05-28T07:23:34.148Z,95
2016-05-28T07:24:39.948Z,90
2016-05-28T07:25:39.936Z,90
2016-05-28T07:26:37.000Z,85
2016-05-28T07:27:33.784Z,85
2016-05-28T07:28:36.771Z,90
2016-05-28T07:29:36.884Z,95
2016-05-28T07:30:33.636Z,90
2016-05-28T07:31:33.591Z,95
2016-05-28T07:32:33.377Z,105
2016-05-28T07:33:33.489Z,95
2016-05-28T07:34:34.538Z,90
2016-05-28T07:35:39.259Z,95
2016-05-28T07:36:36.199Z,110
2016-05-28T07:37:33.640Z,120
2016-05-28T07:38:42.282Z,120
2016-05-28T07:39:33.191Z,115
2016-05-28T07:40:36.241Z,115
2016-05-28T07:41:36.338Z,120
2016-05-28T07:42:39.215Z,130
2016-05-28T07:43:32.890Z,115
2016-05-28T07:44:32.971Z,105
2016-05-28T07:45:36.239Z,130
2016-05-28T07:46:38.960Z,135
2016-05-28T07:47:33.134Z,130
2016-05-28T07:48:41.997Z,130
2016-05-28T07:49:36.218Z,130
2016-05-28T07:50:32.987Z,130
2016-05-28T07:52:35.617Z,130
2016-05-28T07:53:35.933Z,125
2016-05-28T07:54:35.966Z,125
2016-05-28T07:55:35.516Z,125
2016-05-28T07:56:35.503Z,115
2016-05-28T07:57:35.381Z,100
2016-05-28T07:58:38.197Z,95
2016-05-28T07:59:32.308Z,90
2016-05-28T08:00:38.310Z,90
2016-05-28T08:01:36.330Z,90
2016-05-28T08:02:35.238Z,90
2016-05-28T08:03:35.194Z,85
2016-05-28T08:04:32.446Z,85
2016-05-28T08:05:38.480Z,90
2016-05-28T08:06:31.983Z,95
2016-05-28T08:07:31.907Z,95
2016-05-28T08:08:31.879Z,95
2016-05-28T08:09:34.851Z,85
2016-05-28T08:10:38.650Z,85
2016-05-28T08:11:34.746Z,85
2016-05-28T08:12:31.937Z,90
2016-05-28T08:13:32.096Z,85
2016-05-28T08:14:31.864Z,85
2016-05-28T08:15:31.554Z,80
2016-05-28T08:16:32.041Z,85
2016-05-28T08:17:34.887Z,90
2016-05-28T08:18:31.421Z,95
2016-05-28T08:19:32.331Z,105
2016-05-28T08:20:35.255Z,105
2016-05-28T08:21:34.384Z,105
2016-05-28T08:22:43.339Z,110
2016-05-28T08:23:31.075Z,110
2016-05-28T08:24:34.000Z,110
2016-05-28T08:25:37.378Z,115
2016-05-28T08:26:37.724Z,120
2016-05-28T08:27:31.056Z,125
2016-05-28T08:28:35.073Z,130
2016-05-28T08:29:33.998Z,130
2016-05-28T08:30:37.095Z,130
2016-05-28T08:31:36.706Z,130
2016-05-28T08:32:33.803Z,130
2016-05-28T08:33:39.071Z,125
2016-05-28T08:34:44.089Z,125
2016-05-28T08:35:32.092Z,125
2016-05-28T08:36:30.735Z,120
2016-05-28T08:37:33.410Z,120
2016-05-28T08:38:34.132Z,120
2016-05-28T08:39:39.588Z,105
2016-05-28T08:40:33.450Z,100
2016-05-28T08:41:30.562Z,105
2016-05-28T08:42:30.752Z,110
2016-05-28T08:43:34.004Z,110
2016-05-28T08:44:39.163Z,115
2016-05-28T08:45:33.385Z,110
2016-05-28T08:46:36.216Z,100
2016-05-28T08:47:32.999Z,100
2016-05-28T08:48:32.424Z,90
2016-05-28T08:49:33.052Z,85
2016-05-28T08:50:30.508Z,85
2016-05-28T08:51:30.010Z,85
2016-05-28T08:52:29.903Z,85
2016-05-28T08:53:32.923Z,95
2016-05-28T08:54:32.784Z,100
2016-05-28T08:55:29.818Z,105
2016-05-28T08:56:29.384Z,110
2016-05-28T08:57:32.511Z,110
2016-05-28T08:58:29.622Z,105
2016-05-28T08:59:29.453Z,100
2016-05-28T09:00:29.503Z,95
2016-05-28T09:01:29.491Z,95
2016-05-28T09:02:29.446Z,95
2016-05-28T09:03:32.543Z,95
2016-05-28T09:04:29.483Z,90
2016-05-28T09:05:30.345Z,95
2016-05-28T09:06:31.957Z,85
2016-05-28T09:07:29.428Z,90
2016-05-28T09:08:29.009Z,85
2016-05-28T09:09:29.308Z,85
2016-05-28T09:10:34.921Z,90
2016-05-28T09:11:29.018Z,95
2016-05-28T09:12:32.191Z,95
2016-05-28T09:13:31.819Z,100
2016-05-28T09:14:32.010Z,100
2016-05-28T09:15:32.044Z,100
2016-05-28T09:16:31.843Z,100
2016-05-28T09:17:41.096Z,100
2016-05-28T09:18:28.740Z,105
2016-05-28T09:19:28.570Z,95
2016-05-28T09:20:29.088Z,95
2016-05-28T09:21:28.465Z,105
2016-05-28T09:22:31.579Z,110
2016-05-28T09:23:46.362Z,110
2016-05-28T09:24:28.599Z,125
2016-05-28T09:25:31.243Z,130
2016-05-28T09:26:34.449Z,135
2016-05-28T09:27:34.264Z,140
2016-05-28T09:28:31.281Z,140
2016-05-28T09:29:34.284Z,150
2016-05-28T09:30:37.209Z,150
2016-05-28T09:31:31.087Z,160
2016-05-28T09:32:30.996Z,165
2016-05-28T09:33:34.294Z,155
2016-05-28T09:34:28.094Z,155
2016-05-28T09:35:28.738Z,160
2016-05-28T09:36:30.788Z,155
2016-05-28T09:37:27.883Z,155
2016-05-28T09:38:28.230Z,140
2016-05-28T09:39:30.827Z,135
2016-05-28T09:40:28.157Z,135
2016-05-28T09:41:30.677Z,130
2016-05-28T09:42:30.476Z,125
2016-05-28T09:43:30.807Z,125
2016-05-28T09:44:27.527Z,115
2016-05-28T09:45:27.812Z,120
2016-05-28T09:46:27.502Z,120
2016-05-28T09:47:27.255Z,120
2016-05-28T09:48:33.446Z,110
2016-05-28T09:49:30.526Z,105
2016-05-28T09:50:27.981Z,105
2016-05-28T09:51:30.234Z,105
2016-05-28T09:52:30.253Z,95
2016-05-28T09:53:33.161Z,100
2016-05-28T09:54:27.633Z,100
2016-05-28T09:55:33.073Z,95
2016-05-28T09:56:33.310Z,95
2016-05-28T09:57:27.031Z,100
2016-05-28T09:58:27.394Z,100
2016-05-28T09:59:26.959Z,100
2016-05-28T10:00:33.087Z,100
2016-05-28T10:01:29.995Z,95
2016-05-28T10:02:30.482Z,95
2016-05-28T10:03:26.907Z,100
2016-05-28T10:04:29.692Z,90
2016-05-28T10:05:33.288Z,100
2016-05-28T10:06:32.461Z,100
2016-05-28T10:07:37.090Z,100
2016-05-28T10:08:26.592Z,95
2016-05-28T10:09:35.314Z,95
2016-05-28T10:10:29.614Z,90
2016-05-28T10:11:26.789Z,95
2016-05-28T10:12:27.697Z,95
2016-05-28T10:13:29.355Z,95
2016-05-28T10:14:29.093Z,95
2016-05-28T10:15:29.205Z,95
2016-05-28T10:16:26.161Z,95
2016-05-28T10:17:30.711Z,95
2016-05-28T10:18:26.651Z,95
2016-05-28T10:19:26.013Z,95
2016-05-28T10:20:27.171Z,100
2016-05-28T10:21:28.924Z,100
2016-05-28T10:22:29.521Z,100
2016-05-28T10:23:25.852Z,105
2016-05-28T10:24:25.807Z,110
2016-05-28T10:25:28.747Z,110
2016-05-28T10:26:25.720Z,105
2016-05-28T10:27:27.550Z,110
2016-05-28T10:28:28.475Z,105
2016-05-28T10:29:25.430Z,110
2016-05-28T10:30:25.558Z,115
2016-05-28T10:31:28.358Z,115
2016-05-28T10:32:30.595Z,115
2016-05-28T10:33:25.831Z,115
2016-05-28T10:34:28.834Z,115
2016-05-28T10:35:25.525Z,110
2016-05-28T10:36:25.308Z,110
2016-05-28T10:37:31.233Z,110
2016-05-28T10:38:28.235Z,110
2016-05-28T10:39:25.175Z,110
2016-05-28T10:40:28.288Z,115
2016-05-28T10:41:28.588Z,110
2016-05-28T10:42:25.199Z,115
2016-05-28T10:43:24.968Z,115
2016-05-28T10:44:28.439Z,115
2016-05-28T10:45:27.973Z,115
2016-05-28T10:46:24.929Z,110
2016-05-28T10:47:30.854Z,100
2016-05-28T10:48:24.949Z,95
2016-05-28T10:49:27.859Z,90
2016-05-28T10:50:25.737Z,90
2016-05-28T10:51:24.677Z,95
2016-05-28T10:52:27.617Z,100
2016-05-28T10:53:24.542Z,100
2016-05-28T10:54:27.341Z,100
2016-05-28T10:55:24.282Z,100
2016-05-28T10:56:27.284Z,110
2016-05-28T10:57:27.349Z,110
2016-05-28T10:58:30.337Z,115
2016-05-28T10:59:27.479Z,115
2016-05-28T11:00:24.592Z,115
2016-05-28T11:01:24.188Z,120
2016-05-28T11:02:24.348Z,120
2016-05-28T11:03:24.725Z,120
2016-05-28T11:04:27.087Z,120
2016-05-28T11:05:30.792Z,120
2016-05-28T11:06:23.983Z,125
2016-05-28T11:07:23.939Z,130
2016-05-28T11:08:26.894Z,130
2016-05-28T11:09:26.850Z,130
2016-05-28T11:10:26.791Z,120
2016-05-28T11:11:32.980Z,120
2016-05-28T11:12:23.749Z,120
2016-05-28T11:13:24.267Z,120
2016-05-28T11:14:23.661Z,125
2016-05-28T11:15:32.866Z,130
2016-05-28T11:16:32.479Z,130
2016-05-28T11:17:26.466Z,125
2016-05-28T11:18:26.688Z,120
2016-05-28T11:19:24.018Z,115
2016-05-28T11:20:25.474Z,115
2016-05-28T11:21:32.539Z,125
2016-05-28T11:22:23.308Z,125
2016-05-28T11:23:32.247Z,130
2016-05-28T11:24:23.062Z,130
2016-05-28T11:25:35.393Z,130
2016-05-28T11:26:26.177Z,125
2016-05-28T11:27:26.273Z,120
2016-05-28T11:28:26.057Z,120
2016-05-28T11:29:29.420Z,120
2016-05-28T11:30:23.329Z,125
2016-05-28T11:31:28.972Z,125
2016-05-28T11:32:22.865Z,130
2016-05-28T11:33:22.900Z,135
2016-05-28T11:34:22.996Z,140
2016-05-28T11:35:23.420Z,135
2016-05-28T11:36:22.688Z,135
2016-05-28T11:37:37.019Z,130
2016-05-28T11:38:25.678Z,135
2016-05-28T11:39:22.697Z,130
2016-05-28T11:40:22.543Z,130
2016-05-28T11:41:22.406Z,135
2016-05-28T11:42:28.502Z,145
2016-05-28T11:43:25.410Z,150
2016-05-28T11:44:25.850Z,155
2016-05-28T11:45:22.150Z,150
2016-05-28T11:46:25.106Z,145
2016-05-28T11:47:22.781Z,140
2016-05-28T11:48:22.065Z,135
2016-05-28T11:49:25.176Z,140
2016-05-28T11:50:28.508Z,145
2016-05-28T11:51:22.057Z,150
2016-05-28T11:52:21.997Z,160
2016-05-28T11:53:22.171Z,165
2016-05-28T11:54:28.002Z,175
2016-05-28T11:55:24.896Z,175
2016-05-28T11:56:21.899Z,180
2016-05-28T11:57:21.807Z,175
2016-05-28T11:58:24.779Z,170
2016-05-28T11:59:21.719Z,190
2016-05-28T12:00:30.691Z,180
2016-05-28T12:01:21.646Z,175
2016-05-28T12:02:21.618Z,165
2016-05-28T12:03:27.823Z,155
2016-05-28T12:04:24.780Z,140
2016-05-28T12:05:21.486Z,150
2016-05-28T12:06:27.581Z,150
2016-05-28T12:07:27.273Z,150
2016-05-28T12:08:21.336Z,155
2016-05-28T12:09:21.512Z,180
2016-05-28T12:10:21.140Z,200
2016-05-28T12:11:21.252Z,195
2016-05-28T12:12:26.879Z,190
2016-05-28T12:13:24.148Z,190
2016-05-28T12:14:21.088Z,185
2016-05-28T12:15:21.059Z,175
2016-05-28T12:16:21.015Z,165
2016-05-28T12:17:21.189Z,175
2016-05-28T12:18:20.942Z,170
2016-05-28T12:19:20.914Z,170
2016-05-28T12:20:21.213Z,160
2016-05-28T12:21:20.825Z,170
2016-05-28T12:22:24.234Z,160
2016-05-28T12:23:20.784Z,135
2016-05-28T12:24:20.693Z,130
2016-05-28T12:25:20.383Z,115
2016-05-28T12:26:23.682Z,135
2016-05-28T12:27:23.685Z,180
2016-05-28T12:28:20.531Z,175
2016-05-28T12:29:20.316Z,175
2016-05-28T12:30:20.287Z,180
2016-05-28T12:31:23.414Z,185
2016-05-28T12:32:23.370Z,190
2016-05-28T12:33:20.748Z,190
2016-05-28T12:34:23.564Z,190
2016-05-28T12:35:21.050Z,185
2016-05-28T12:36:20.210Z,185
2016-05-28T12:37:23.009Z,190
2016-05-28T12:38:20.168Z,205
2016-05-28T12:39:23.484Z,220
2016-05-28T12:40:20.111Z,200
2016-05-28T12:41:20.020Z,195
2016-05-28T12:42:23.210Z,190
2016-05-28T12:43:22.916Z,190
2016-05-28T12:44:22.887Z,195
2016-05-28T12:45:19.702Z,205
2016-05-28T12:46:22.800Z,195
2016-05-28T12:47:22.583Z,195
2016-05-28T12:48:19.726Z,200
2016-05-28T12:49:19.994Z,185
2016-05-28T12:50:20.513Z,170
2016-05-28T12:51:31.593Z,200
2016-05-28T12:52:19.377Z,185
2016-05-28T12:53:19.474Z,185
2016-05-28T12:54:19.304Z,170
2016-05-28T12:55:19.432Z,165
2016-05-28T12:56:19.216Z,145
2016-05-28T12:57:22.765Z,125
2016-05-28T12:58:22.128Z,115
2016-05-28T12:59:19.116Z,135
2016-05-28T13:00:19.212Z,155
2016-05-28T13:01:19.182Z,145
2016-05-28T13:02:19.124Z,150
2016-05-28T13:03:19.079Z,155
2016-05-28T13:04:18.879Z,145
2016-05-28T13:05:19.053Z,135
2016-05-28T13:06:21.962Z,135
2016-05-28T13:07:19.012Z,135
2016-05-28T13:08:18.890Z,150
2016-05-28T13:09:18.845Z,155
2016-05-28T13:10:18.628Z,170
2016-05-28T13:11:18.803Z,190
2016-05-28T13:12:21.775Z,195
2016-05-28T13:13:21.575Z,195
2016-05-28T13:14:22.452Z,195
2016-05-28T13:15:18.799Z,190
2016-05-28T13:16:18.755Z,180
2016-05-28T13:17:18.538Z,165
2016-05-28T13:18:18.478Z,155
2016-05-28T13:19:21.793Z,160
2016-05-28T13:20:18.719Z,170
2016-05-28T13:21:21.205Z,170
2016-05-28T13:22:18.286Z,170
2016-05-28T13:23:21.211Z,165
2016-05-28T13:24:18.260Z,160
2016-05-28T13:25:18.169Z,160
2016-05-28T13:26:18.141Z,165
2016-05-28T13:27:17.956Z,170
2016-05-28T13:28:18.131Z,180
2016-05-28T13:29:18.024Z,195
2016-05-28T13:30:27.230Z,195
2016-05-28T13:31:17.810Z,195
2016-05-28T13:32:17.782Z,200
2016-05-28T13:33:17.848Z,195
2016-05-28T13:34:17.663Z,170
2016-05-28T13:35:17.774Z,185
2016-05-28T13:36:20.746Z,215
2016-05-28T13:37:17.905Z,245
2016-05-28T13:38:17.655Z,250
2016-05-28T13:39:20.457Z,220
2016-05-28T13:40:17.770Z,195
2016-05-28T13:41:17.553Z,195
2016-05-28T13:42:17.494Z,200
2016-05-28T13:43:17.450Z,205
2016-05-28T13:44:17.421Z,210
2016-05-28T13:45:17.408Z,235
2016-05-28T13:46:17.301Z,260
2016-05-28T13:47:23.306Z,250
2016-05-28T13:48:17.213Z,240
2016-05-28T13:49:17.200Z,235
2016-05-28T13:50:17.390Z,225
2016-05-28T13:51:17.144Z,230
2016-05-28T13:52:20.070Z,225
2016-05-28T13:53:17.117Z,225
2016-05-28T13:54:17.072Z,245
2016-05-28T13:55:16.950Z,255
2016-05-28T13:56:16.750Z,250
2016-05-28T13:57:16.706Z,235
2016-05-28T13:58:16.833Z,240
2016-05-28T13:59:16.821Z,245
2016-05-28T14:00:19.810Z,240
2016-05-28T14:01:17.029Z,265
2016-05-28T14:02:16.501Z,315
2016-05-28T14:03:16.660Z,315
2016-05-28T14:04:16.584Z,295
2016-05-28T14:05:20.965Z,295
2016-05-28T14:06:16.746Z,275
2016-05-28T14:07:16.467Z,250
2016-05-28T14:08:16.282Z,240
2016-05-28T14:09:19.398Z,240
2016-05-28T14:10:16.366Z,230
2016-05-28T14:11:16.290Z,225
2016-05-28T14:12:16.464Z,250
2016-05-28T14:13:25.283Z,245
2016-05-28T14:14:19.082Z,245